LICJLGMK

Guest
Details From LICJ - Palermo
To LGMK - Mikonos
Flight Number -
Tags Generated
Created
Modified
Stats Distance 583 nm / 1,080 km
Max Altitude 0 ft / 0 m
Waypoints 3
Social Downloads 2
Likes 0
Share VATSIM

Download

Looking for another format? Having issues loading an existing format? Contact us
Advertisement - Login to hide

Notes

Generated

Route

LICJ MKN LGMK

ID Type Via Altitude Latitude Longitude Leg Dist Tot Dist Heading (true) Name
O LICJ APT - 0 ft / 0 m 38.16614˚ 13.08562˚ - 0 nm - -
MKN VOR - 0 ft / 0 m 37.44027˚ 25.34449˚ 582 nm 582 nm 91° / 98° MIKONOS VOR-DME
O LGMK APT - 0 ft / 0 m 37.44325˚ 25.34466˚ 0 nm 583 nm 3° / 3° -

Altitude Profile

Advertisement - Login to hide

Weather


0- 5 10 15 20 25 30 35+ Temperature / ° C

Clouds and Precipitation
Forecast for 2017-12-14 12:00 UTC. Updated an hour ago

Ground ~20,000 ft ~40,000 ft Winds

LICJ

Details ICAO LICJ (PMO)
Name PALERMO
Region Italy
Timezone Europe/Rome (UTC+1.0)
Stats Elevation 65 ft / 20 m (AMSL)
Location 38.177377° 13.097035°
Runways 2
Magnetic Variation 2.950° E

METAR

LICJ 140820Z 20010KT 9999 FEW035 14/06 Q1022

Decode

TAF

TAF LICJ 140500Z 1406/1506 25016KT 9999 SCT025

Decode

Departure Runways

ID Width Length Bearing (true) Bearing (mag) Surface Threshold Offset Overrun Length
02 148 ft / 45 m 6,813 ft / 2,077 m 23.81° 20.86° Asphalt 10 ft / 3 m 0 ft / 0 m
07 197 ft / 60 m 10,685 ft / 3,257 m 66.82° 63.87° Asphalt 404 ft / 123 m 0 ft / 0 m
20 148 ft / 45 m 6,813 ft / 2,077 m 203.81° 200.86° Asphalt 10 ft / 3 m 0 ft / 0 m
25 197 ft / 60 m 10,685 ft / 3,257 m 246.85° 243.90° Asphalt 679 ft / 207 m 0 ft / 0 m

LGMK

Details ICAO LGMK (JMK)
Name Mikonos
Region Greece
Timezone Europe/Athens (UTC+2.0)
Stats Elevation 405 ft / 123 m (AMSL)
Location 37.435385° 25.348138°
Runways 1
Magnetic Variation 4.600° E

METAR

LGMK 140820Z 24007KT 9999 FEW018 16/12 Q1017

Decode

TAF

Not found

Destination Runways

ID Width Length Bearing (true) Bearing (mag) Surface Threshold Offset Overrun Length
16 98 ft / 30 m 6,423 ft / 1,958 m 160.63° 156.03° Asphalt 0 ft / 0 m 200 ft / 61 m
34 98 ft / 30 m 6,423 ft / 1,958 m 340.63° 336.03° Asphalt 0 ft / 0 m 200 ft / 61 m

Popular Alternatives